ADDS METAR Data INFO
IDs: Format: Raw Decoded Include TAF

Data at: 1008 UTC 12 Dec 2017

KRZR 120955Z AUTO 00000KT 10SM CLR 03/01 A2985 RMK A01
KRZR 120935Z AUTO 00000KT 10SM CLR 04/01 A2985 RMK A01
KRZR 120915Z AUTO 00000KT 10SM CLR 03/01 A2986 RMK A01
KRZR 120855Z AUTO 00000KT 10SM CLR 03/01 A2986 RMK A01
KRZR 120835Z AUTO 00000KT 10SM CLR 04/01 A2986 RMK A01
KRZR 120815Z AUTO 22004KT 10SM CLR 05/01 A2986 RMK A01
KRZR 120755Z AUTO 22006KT 10SM CLR 05/01 A2985 RMK A01
KRZR 120735Z AUTO 23006KT 10SM CLR 05/01 A2985 RMK A01
KRZR 120715Z AUTO 23006KT 10SM CLR 05/01 A2985 RMK A01
KRZR 120655Z AUTO 21005KT 10SM CLR 05/01 A2986 RMK A01
KRZR 120635Z AUTO 22007KT 10SM CLR 05/01 A2986 RMK A01
KRZR 120615Z AUTO 22008KT 10SM CLR 05/01 A2986 RMK A01
KRZR 120555Z AUTO 23007KT 10SM CLR 06/01 A2987 RMK A01
KRZR 120535Z AUTO 23007KT 10SM CLR 06/01 A2987 RMK A01
KRZR 120515Z AUTO 23007KT 10SM CLR 06/01 A2988 RMK A01
KRZR 120455Z AUTO 22008KT 10SM CLR 06/01 A2989 RMK A01
KRZR 120435Z AUTO 22009KT 10SM CLR 07/01 A2989 RMK A01
KRZR 120415Z AUTO 22009KT 10SM CLR 07/01 A2990 RMK A01
KRZR 120355Z AUTO 21008KT 10SM CLR 07/01 A2991 RMK A01
KRZR 120335Z AUTO 22010KT 10SM CLR 08/01 A2991 RMK A01
KRZR 120315Z AUTO 20011KT 10SM CLR 08/01 A2991 RMK A01
KRZR 120255Z AUTO 20009KT 10SM CLR 08/01 A2991 RMK A01
KRZR 120235Z AUTO 21007G13KT 10SM CLR 09/01 A2992 RMK A01
KRZR 120215Z AUTO 21008G16KT 10SM CLR 10/01 A2990 RMK A01
KRZR 120155Z AUTO 21007G12KT 10SM CLR 10/01 A2991 RMK A01
KRZR 120135Z AUTO 19009KT 10SM CLR 09/01 A2992 RMK A01
KRZR 120115Z AUTO 21009KT 10SM CLR 08/01 A2993 RMK A01
KRZR 120055Z AUTO 21008G13KT 10SM CLR 09/01 A2993 RMK A01
KRZR 120035Z AUTO 21008KT 10SM CLR 09/01 A2993 RMK A01
KRZR 120015Z AUTO 20008KT 10SM CLR 10/01 A2993 RMK A01
KRZR 112355Z AUTO 19010KT 10SM CLR 10/00 A2993 RMK A01
KRZR 112335Z AUTO 20008KT 10SM CLR 10/01 A2994 RMK A01
KRZR 112315Z AUTO 20007KT 10SM CLR 10/01 A2994 RMK A01
KRZR 112255Z AUTO 19007KT 10SM CLR 10/01 A2995 RMK A01
KRZR 112235Z AUTO 19006G12KT 10SM CLR 11/00 A2994 RMK A01
KRZR 112215Z AUTO 19008G15KT 10SM CLR 11/01 A2994 RMK A01
KRZR 112155Z AUTO 19009KT 10SM CLR 12/01 A2995 RMK A01
KRZR 112135Z AUTO 18009G14KT 160V220 10SM CLR 12/00 A2995 RMK A01
KRZR 112115Z AUTO 19009G15KT 10SM CLR 13/00 A2996 RMK A01
KRZR 112055Z AUTO 19009KT 10SM CLR 13/00 A2997 RMK A01
KRZR 112035Z AUTO 20009KT 10SM CLR 13/00 A2999 RMK A01
KRZR 112015Z AUTO 20009G14KT CLR 13/00 A2999 RMK A01
KRZR 111955Z AUTO 21007KT 10SM CLR 13/00 A3000 RMK A01
KRZR 111935Z AUTO 20006G11KT 10SM CLR 13/00 A3001 RMK A01
KRZR 111915Z AUTO 20007KT 10SM CLR 13/M00 A3001 RMK A01
KRZR 111855Z AUTO VRB06KT 10SM CLR 12/M00 A3003 RMK A01
KRZR 111835Z AUTO 21008KT 170V230 10SM CLR 12/M00 A3003 RMK A01
KRZR 111815Z AUTO 22009KT 10SM CLR 12/00 A3005 RMK A01
KRZR 111755Z AUTO 21008KT 10SM CLR 11/00 A3005 RMK A01
KRZR 111735Z AUTO 20010KT 10SM CLR 10/M00 A3007 RMK A01
KRZR 111715Z AUTO 21008KT 10SM CLR 10/M00 A3009 RMK A01
KRZR 111655Z AUTO 22009KT 10SM CLR 09/M00 A3011 RMK A01
KRZR 111635Z AUTO 24009KT 10SM CLR 09/M01 A3012 RMK A01
KRZR 111615Z AUTO 23006KT 10SM CLR 08/M01 A3013 RMK A01
KRZR 111555Z AUTO 20005KT 10SM CLR 07/M01 A3014 RMK A01
KRZR 111535Z AUTO 21007KT 10SM CLR 06/M01 A3015 RMK A01
KRZR 111515Z AUTO 21006KT 10SM CLR 05/M01 A3016 RMK A01
KRZR 111455Z AUTO 21007KT 10SM CLR 04/M01 A3016 RMK A01
KRZR 111435Z AUTO 23007KT 10SM CLR 03/M01 A3016 RMK A01
KRZR 111415Z AUTO 22009KT 10SM CLR 02/M01 A3015 RMK A01
KRZR 111355Z AUTO 22008KT 10SM CLR 01/M01 A3015 RMK A01
KRZR 111335Z AUTO 21007KT 10SM CLR 00/M02 A3015 RMK A01
KRZR 111315Z AUTO 00000KT 10SM CLR M02/M03 A3016 RMK A01
KRZR 111255Z AUTO 00000KT 10SM CLR M01/M03 A3016 RMK A01
KRZR 111235Z AUTO 00000KT 10SM CLR M02/M03 A3017 RMK A01
KRZR 111215Z AUTO 22003KT 10SM CLR M02/M03 A3016 RMK A01
KRZR 111155Z AUTO 21004KT 10SM CLR M01/M03 A3016 RMK A01
KRZR 111135Z AUTO 21004KT 10SM CLR M02/M03 A3016 RMK A01
KRZR 111115Z AUTO 00000KT 10SM CLR M02/M03 A3016 RMK A01
KRZR 111055Z AUTO 00000KT 10SM CLR M03/M03 A3016 RMK A01
KRZR 111035Z AUTO 22004KT 10SM CLR M03/M03 A3016 RMK A01
KRZR 111015Z AUTO 22003KT 10SM CLR M03/M03 A3016 RMK A01
KRZR 110955Z AUTO 00000KT 10SM CLR M02/M03 A3016 RMK A01
KRZR 110935Z AUTO 00000KT 10SM CLR M02/M03 A3017 RMK A01
KRZR 110915Z AUTO 00000KT 10SM CLR M03/M03 A3017 RMK A01
KRZR 110855Z AUTO 00000KT 10SM CLR M02/M03 A3017 RMK A01
KRZR 110835Z AUTO 00000KT 10SM CLR M02/M03 A3017 RMK A01
KRZR 110815Z AUTO 20003KT 10SM CLR M02/M03 A3017 RMK A01
KRZR 110755Z AUTO 21004KT 10SM CLR M01/M03 A3017 RMK A01
KRZR 110735Z AUTO 20003KT 10SM CLR M02/M03 A3018 RMK A01
KRZR 110715Z AUTO 22003KT 10SM CLR M02/M03 A3018 RMK A01
KRZR 110655Z AUTO 22004KT 10SM CLR M01/M03 A3018 RMK A01
KRZR 110635Z AUTO 00000KT 10SM CLR M01/M03 A3019 RMK A01
KRZR 110615Z AUTO 00000KT 10SM CLR M01/M03 A3020 RMK A01
KRZR 110555Z AUTO 00000KT 10SM CLR M01/M03 A3020 RMK A01
KRZR 110535Z AUTO 00000KT 10SM CLR M00/M03 A3021 RMK A01
KRZR 110515Z AUTO 22006KT 10SM CLR 00/M03 A3021 RMK A01
KRZR 110455Z AUTO 21005KT 10SM CLR 01/M03 A3021 RMK A01
KRZR 110435Z AUTO 20004KT 10SM CLR 01/M04 A3021 RMK A01
KRZR 110415Z AUTO 21005KT 10SM CLR 01/M03 A3021 RMK A01
KRZR 110355Z AUTO 21006KT 10SM CLR 01/M03 A3021 RMK A01
KRZR 110335Z AUTO 21005KT 10SM CLR 01/M04 A3021 RMK A01
KRZR 110315Z AUTO 22005KT 10SM CLR 01/M04 A3021 RMK A01
KRZR 110255Z AUTO 21006KT 10SM CLR 01/M03 A3021 RMK A01
KRZR 110235Z AUTO 22007KT 10SM CLR 02/M03 A3020 RMK A01
KRZR 110215Z AUTO 21008KT 10SM CLR 02/M03 A3019 RMK A01
KRZR 110155Z AUTO 21007KT 10SM CLR 02/M03 A3018 RMK A01
KRZR 110135Z AUTO 21007KT 10SM CLR 03/M04 A3017 RMK A01
KRZR 110115Z AUTO 21008KT 10SM CLR 03/M04 A3017 RMK A01
KRZR 110055Z AUTO 21006KT 10SM CLR 03/M04 A3016 RMK A01
KRZR 110035Z AUTO 21006KT 10SM CLR 04/M04 A3016 RMK A01
KRZR 110015Z AUTO 20006KT 10SM CLR 04/M04 A3016 RMK A01
KRZR 102355Z AUTO 20007KT 10SM CLR 04/M04 A3015 RMK A01
KRZR 102335Z AUTO 20006G12KT 10SM CLR 04/M05 A3014 RMK A01
KRZR 102315Z AUTO 19005KT 10SM CLR 04/M05 A3015 RMK A01
KRZR 102255Z AUTO 20005KT 10SM CLR 05/M06 A3016 RMK A01
KRZR 102235Z AUTO 20004KT 10SM CLR 06/M06 A3016 RMK A01
KRZR 102215Z AUTO 22007KT 10SM CLR 06/M06 A3017 RMK A01